createdAt,value
2023-01-22T00:00:06.872Z,23.60
2023-01-22T00:02:40.622Z,21.50
2023-01-22T00:05:09.481Z,20.03
2023-01-22T00:07:38.659Z,19.47
2023-01-22T00:10:07.160Z,20.13
2023-01-22T00:12:36.250Z,20.10
2023-01-22T00:15:04.166Z,22.00
2023-01-22T00:17:32.015Z,20.83
2023-01-22T00:19:59.767Z,19.97
2023-01-22T00:22:27.588Z,21.33
2023-01-22T00:24:56.742Z,20.23
2023-01-22T00:27:24.609Z,19.70
2023-01-22T00:29:52.353Z,18.73
2023-01-22T00:32:20.217Z,18.97
2023-01-22T00:34:52.335Z,16.90
2023-01-22T00:37:20.410Z,18.83
2023-01-22T00:39:48.135Z,18.50
2023-01-22T00:42:17.235Z,20.07
2023-01-22T00:44:44.995Z,18.77
2023-01-22T00:47:13.016Z,18.50
2023-01-22T00:49:40.806Z,16.97
2023-01-22T00:52:08.578Z,17.47
2023-01-22T00:54:36.407Z,18.23
2023-01-22T00:57:04.393Z,16.37
2023-01-22T00:59:33.591Z,17.47
2023-01-22T01:02:01.399Z,17.00
2023-01-22T01:04:29.234Z,17.40
2023-01-22T01:06:57.037Z,21.07
2023-01-22T01:09:24.873Z,15.73
2023-01-22T01:11:53.253Z,16.73
2023-01-22T01:14:21.096Z,18.47
2023-01-22T01:16:51.235Z,19.17
2023-01-22T01:19:20.468Z,17.60
2023-01-22T01:21:51.718Z,19.50
2023-01-22T01:24:19.506Z,17.47
2023-01-22T01:26:47.262Z,16.80
2023-01-22T01:29:15.977Z,17.70
2023-01-22T01:31:43.800Z,17.17
2023-01-22T01:34:13.585Z,16.57
2023-01-22T01:36:48.866Z,17.63
2023-01-22T01:39:17.376Z,22.90
2023-01-22T01:41:45.756Z,16.17
2023-01-22T01:44:15.620Z,16.67
2023-01-22T01:46:47.838Z,16.33
2023-01-22T01:49:24.073Z,17.17
2023-01-22T01:51:53.692Z,16.63
2023-01-22T01:54:21.651Z,18.20
2023-01-22T01:56:52.570Z,17.07
2023-01-22T01:59:22.780Z,15.43
2023-01-22T02:01:55.685Z,18.67
2023-01-22T02:04:25.195Z,16.83
2023-01-22T02:06:54.815Z,18.83
2023-01-22T02:09:22.916Z,16.33
2023-01-22T02:11:52.505Z,17.07
2023-01-22T02:14:25.245Z,17.37
2023-01-22T02:17:01.293Z,15.53
2023-01-22T02:19:30.434Z,17.13
2023-01-22T02:21:59.616Z,16.27
2023-01-22T02:24:31.352Z,16.90
2023-01-22T02:26:59.358Z,16.83
2023-01-22T02:29:28.956Z,16.73
2023-01-22T02:31:56.866Z,16.97
2023-01-22T02:34:25.064Z,16.60
2023-01-22T02:36:54.602Z,15.83
2023-01-22T02:39:23.763Z,16.43
2023-01-22T02:41:52.371Z,15.53
2023-01-22T02:44:20.659Z,15.17
2023-01-22T02:46:48.416Z,16.43
2023-01-22T02:49:16.478Z,15.77
2023-01-22T02:51:44.231Z,15.83
2023-01-22T02:54:12.509Z,15.63
2023-01-22T02:56:41.819Z,15.77
2023-01-22T02:59:09.897Z,16.30
2023-01-22T03:01:38.234Z,14.87
2023-01-22T03:04:10.877Z,16.77
2023-01-22T03:06:40.582Z,17.27
2023-01-22T03:09:10.103Z,17.27
2023-01-22T03:11:42.110Z,16.50
2023-01-22T03:14:34.369Z,18.37
2023-01-22T03:17:19.848Z,17.67
2023-01-22T03:20:05.492Z,19.07
2023-01-22T03:22:33.403Z,17.30
2023-01-22T03:25:01.442Z,18.63
2023-01-22T03:27:32.525Z,18.10
2023-01-22T03:30:00.369Z,18.03
2023-01-22T03:32:32.509Z,21.50
2023-01-22T03:35:01.722Z,19.43
2023-01-22T03:37:39.238Z,18.33
2023-01-22T03:40:10.216Z,19.57
2023-01-22T03:42:41.565Z,19.40
2023-01-22T03:45:10.660Z,20.50
2023-01-22T03:47:38.918Z,19.70
2023-01-22T03:50:20.755Z,19.07
2023-01-22T03:52:48.545Z,19.47
2023-01-22T03:55:16.921Z,21.40
2023-01-22T03:57:46.326Z,21.63
2023-01-22T04:00:16.215Z,20.13
2023-01-22T04:02:44.319Z,19.83
2023-01-22T04:05:20.701Z,21.10
2023-01-22T04:07:50.586Z,19.80
2023-01-22T04:10:20.936Z,22.10
2023-01-22T04:12:50.974Z,21.13
2023-01-22T04:15:21.969Z,22.03
2023-01-22T04:17:51.058Z,20.33
2023-01-22T04:20:45.579Z,21.83
2023-01-22T04:23:39.928Z,20.03
2023-01-22T04:26:07.817Z,23.83
2023-01-22T04:28:36.951Z,23.77
2023-01-22T04:31:05.670Z,21.97
2023-01-22T04:33:56.834Z,22.03
2023-01-22T04:36:29.544Z,22.93
2023-01-22T04:38:57.571Z,24.47
2023-01-22T04:41:25.667Z,21.90
2023-01-22T04:43:54.954Z,22.13
2023-01-22T04:46:25.191Z,21.60
2023-01-22T04:48:53.698Z,21.43
2023-01-22T04:51:21.567Z,22.10
2023-01-22T04:53:49.448Z,22.90
2023-01-22T04:56:18.258Z,22.93
2023-01-22T04:58:46.457Z,21.53
2023-01-22T05:01:17.390Z,22.50
2023-01-22T05:03:46.028Z,23.13
2023-01-22T05:06:13.921Z,22.60
2023-01-22T05:08:41.671Z,23.13
2023-01-22T05:11:11.121Z,22.67
2023-01-22T05:13:52.884Z,21.73
2023-01-22T05:16:22.618Z,23.57
2023-01-22T05:18:50.518Z,23.17
2023-01-22T05:21:18.716Z,21.63
2023-01-22T05:23:47.584Z,21.77
2023-01-22T05:26:15.515Z,24.40
2023-01-22T05:28:52.977Z,24.27
2023-01-22T05:31:41.028Z,22.27
2023-01-22T05:34:16.658Z,24.17
2023-01-22T05:36:44.516Z,23.37
2023-01-22T05:39:17.082Z,24.17
2023-01-22T05:41:45.538Z,22.80
2023-01-22T05:44:15.055Z,22.73
2023-01-22T05:46:47.923Z,23.93
2023-01-22T05:49:21.697Z,22.90
2023-01-22T05:51:50.949Z,23.60
2023-01-22T05:54:19.269Z,21.83
2023-01-22T05:56:48.563Z,21.63
2023-01-22T05:59:16.589Z,21.37
2023-01-22T06:01:50.226Z,21.47
2023-01-22T06:04:18.000Z,21.20
2023-01-22T06:06:45.815Z,22.57
2023-01-22T06:09:14.212Z,22.23
2023-01-22T06:11:43.145Z,19.23
2023-01-22T06:14:12.606Z,20.20
2023-01-22T06:16:40.531Z,20.40
2023-01-22T06:19:14.107Z,21.23
2023-01-22T06:21:50.460Z,19.50
2023-01-22T06:24:19.081Z,22.53
2023-01-22T06:26:47.874Z,21.73
2023-01-22T06:29:16.356Z,19.87
2023-01-22T06:31:45.893Z,20.93
2023-01-22T06:34:19.200Z,20.77
2023-01-22T06:36:47.033Z,22.10
2023-01-22T06:39:15.979Z,21.70
2023-01-22T06:41:58.783Z,20.90
2023-01-22T06:44:26.564Z,22.20
2023-01-22T06:46:54.410Z,21.83
2023-01-22T06:49:27.577Z,20.07
2023-01-22T06:51:55.854Z,20.17
2023-01-22T06:54:24.281Z,20.40
2023-01-22T06:56:52.079Z,21.53
2023-01-22T06:59:22.893Z,20.73
2023-01-22T07:01:50.740Z,19.97
2023-01-22T07:04:18.531Z,21.13
2023-01-22T07:06:47.781Z,20.67
2023-01-22T07:09:15.561Z,20.13
2023-01-22T07:11:43.335Z,20.07
2023-01-22T07:14:11.070Z,19.80
2023-01-22T07:16:38.905Z,18.50
2023-01-22T07:19:06.726Z,20.87
2023-01-22T07:21:34.630Z,19.33
2023-01-22T07:24:03.834Z,19.70
2023-01-22T07:26:31.646Z,19.60
2023-01-22T07:28:59.433Z,18.40
2023-01-22T07:31:27.336Z,19.47
2023-01-22T07:33:55.255Z,19.83
2023-01-22T07:36:23.195Z,18.37
2023-01-22T07:38:50.950Z,18.70
2023-01-22T07:41:25.765Z,19.37
2023-01-22T07:43:56.063Z,19.07
2023-01-22T07:46:24.139Z,18.83
2023-01-22T07:48:51.991Z,17.00
2023-01-22T07:51:19.997Z,17.57
2023-01-22T07:53:47.825Z,18.40
2023-01-22T07:56:15.637Z,18.87
2023-01-22T07:58:44.767Z,19.30
2023-01-22T08:01:12.944Z,18.63
2023-01-22T08:03:40.820Z,17.90
2023-01-22T08:06:09.562Z,19.43
2023-01-22T08:08:37.589Z,19.80
2023-01-22T08:11:05.941Z,19.47
2023-01-22T08:13:33.746Z,18.23
2023-01-22T08:16:03.277Z,17.40
2023-01-22T08:18:31.308Z,17.97
2023-01-22T08:21:00.883Z,18.13
2023-01-22T08:23:28.824Z,19.30
2023-01-22T08:25:59.382Z,21.05
2023-01-22T08:28:27.742Z,19.20
2023-01-22T08:30:58.803Z,18.90
2023-01-22T08:33:28.715Z,18.03
2023-01-22T08:35:56.688Z,18.30
2023-01-22T08:38:24.450Z,18.47
2023-01-22T08:40:52.793Z,18.13
2023-01-22T08:43:20.730Z,18.30
2023-01-22T08:45:49.864Z,18.07
2023-01-22T08:48:17.794Z,19.10
2023-01-22T08:50:47.021Z,17.90
2023-01-22T08:53:14.855Z,18.90
2023-01-22T08:55:42.612Z,17.60
2023-01-22T08:58:10.484Z,17.27
2023-01-22T09:00:38.366Z,16.57
2023-01-22T09:03:06.542Z,15.67
2023-01-22T09:05:34.330Z,16.47
2023-01-22T09:08:03.495Z,16.83
2023-01-22T09:10:31.249Z,16.43
2023-01-22T09:13:00.413Z,16.57
2023-01-22T09:15:28.435Z,18.00
2023-01-22T09:17:56.394Z,16.50
2023-01-22T09:20:24.194Z,16.90
2023-01-22T09:22:51.984Z,16.33
2023-01-22T09:25:21.390Z,17.10
2023-01-22T09:27:49.165Z,17.03
2023-01-22T09:30:17.982Z,15.77
2023-01-22T09:32:45.919Z,15.53
2023-01-22T09:35:16.273Z,15.67
2023-01-22T09:37:44.365Z,15.27
2023-01-22T09:40:25.992Z,15.97
2023-01-22T09:43:05.128Z,15.33
2023-01-22T09:45:35.534Z,15.00
2023-01-22T09:48:08.891Z,14.77
2023-01-22T09:50:37.831Z,13.20
2023-01-22T09:53:10.571Z,14.27
2023-01-22T09:55:44.969Z,13.17
2023-01-22T09:58:16.662Z,14.33
2023-01-22T10:00:47.844Z,14.27
2023-01-22T10:03:22.768Z,14.33
2023-01-22T10:05:55.166Z,13.87
2023-01-22T10:08:24.544Z,16.23
2023-01-22T10:10:53.729Z,14.80
2023-01-22T10:13:23.367Z,14.73
2023-01-22T10:15:53.431Z,15.37
2023-01-22T10:18:34.443Z,13.33
2023-01-22T10:21:20.016Z,13.70
2023-01-22T10:23:50.208Z,14.90
2023-01-22T10:26:24.973Z,13.27
2023-01-22T10:28:56.223Z,13.23
2023-01-22T10:31:27.577Z,13.60
2023-01-22T10:33:59.528Z,14.37
2023-01-22T10:36:28.243Z,12.53
2023-01-22T10:39:06.964Z,15.53
2023-01-22T10:41:36.251Z,13.07
2023-01-22T10:44:21.325Z,13.77
2023-01-22T10:46:50.773Z,13.57
2023-01-22T10:49:22.347Z,12.53
2023-01-22T10:51:55.407Z,13.33
2023-01-22T10:54:29.763Z,13.50
2023-01-22T10:57:08.392Z,13.77
2023-01-22T10:59:36.594Z,13.67
2023-01-22T11:02:16.078Z,14.60
2023-01-22T11:04:43.986Z,13.40
2023-01-22T11:07:15.935Z,13.03
2023-01-22T11:09:48.731Z,13.40
2023-01-22T11:12:23.327Z,13.83
2023-01-22T11:15:04.750Z,14.07
2023-01-22T11:17:38.818Z,14.10
2023-01-22T11:20:17.872Z,12.40
2023-01-22T11:22:51.017Z,12.73
2023-01-22T11:25:18.898Z,13.13
2023-01-22T11:28:00.749Z,12.40
2023-01-22T11:30:49.748Z,12.03
2023-01-22T11:33:33.397Z,12.87
2023-01-22T11:36:09.449Z,13.20
2023-01-22T11:38:45.182Z,12.03
2023-01-22T11:41:38.252Z,13.20
2023-01-22T11:44:27.913Z,12.53
2023-01-22T11:47:07.767Z,14.50
2023-01-22T11:49:45.653Z,12.53
2023-01-22T11:52:26.653Z,12.63
2023-01-22T11:55:15.655Z,12.50
2023-01-22T11:57:47.993Z,12.33
2023-01-22T12:00:29.904Z,13.17
2023-01-22T12:03:25.249Z,13.53
2023-01-22T12:06:06.549Z,13.63
2023-01-22T12:08:48.375Z,16.00
2023-01-22T12:11:30.384Z,14.20
2023-01-22T12:14:21.701Z,13.93
2023-01-22T12:16:59.368Z,13.30
2023-01-22T12:19:53.910Z,15.97
2023-01-22T12:22:29.884Z,13.57
2023-01-22T12:25:03.351Z,15.10
2023-01-22T12:27:35.843Z,13.57
2023-01-22T12:30:15.113Z,14.57
2023-01-22T12:32:49.453Z,14.70
2023-01-22T12:35:19.230Z,12.97
2023-01-22T12:37:56.588Z,14.10
2023-01-22T12:40:42.439Z,13.60
2023-01-22T12:43:10.219Z,13.77
2023-01-22T12:45:45.666Z,14.87
2023-01-22T12:48:26.954Z,15.67
2023-01-22T12:50:57.215Z,13.57
2023-01-22T12:53:27.970Z,13.53
2023-01-22T12:56:01.281Z,18.77
2023-01-22T12:58:31.391Z,12.93
2023-01-22T13:01:20.745Z,13.57
2023-01-22T13:03:59.374Z,17.00
2023-01-22T13:06:33.193Z,14.23
2023-01-22T13:09:01.237Z,13.40
2023-01-22T13:11:31.925Z,15.77
2023-01-22T13:14:15.227Z,13.90
2023-01-22T13:16:52.419Z,14.97
2023-01-22T13:19:24.056Z,14.07
2023-01-22T13:21:52.795Z,13.83
2023-01-22T13:24:22.050Z,14.27
2023-01-22T13:26:57.087Z,13.83
2023-01-22T13:29:28.786Z,16.70
2023-01-22T13:31:58.514Z,15.60
2023-01-22T13:34:29.111Z,14.13
2023-01-22T13:36:57.555Z,16.10
2023-01-22T13:39:29.721Z,14.77
2023-01-22T13:41:59.436Z,14.40
2023-01-22T13:44:36.782Z,15.60
2023-01-22T13:47:05.246Z,16.50
2023-01-22T13:49:42.289Z,15.73
2023-01-22T13:52:15.857Z,14.07
2023-01-22T13:54:48.487Z,17.50
2023-01-22T13:57:22.399Z,16.60
2023-01-22T13:59:56.264Z,15.63
2023-01-22T14:02:24.892Z,15.67
2023-01-22T14:04:54.139Z,14.33
2023-01-22T14:07:26.946Z,13.67
2023-01-22T14:09:55.783Z,14.97
2023-01-22T14:12:25.874Z,14.60
2023-01-22T14:14:54.888Z,15.10
2023-01-22T14:17:28.702Z,15.43
2023-01-22T14:19:58.619Z,17.10
2023-01-22T14:22:26.965Z,13.97
2023-01-22T14:24:55.022Z,18.00
2023-01-22T14:27:23.928Z,17.47
2023-01-22T14:29:53.270Z,17.53
2023-01-22T14:32:21.385Z,15.10
2023-01-22T14:34:49.113Z,16.50
2023-01-22T14:37:19.191Z,15.53
2023-01-22T14:39:46.909Z,16.70
2023-01-22T14:42:14.727Z,19.50
2023-01-22T14:44:42.508Z,17.10
2023-01-22T14:47:10.286Z,19.30
2023-01-22T14:49:40.248Z,19.70
2023-01-22T14:52:07.997Z,16.90
2023-01-22T14:54:37.296Z,18.63
2023-01-22T14:57:05.223Z,18.10
2023-01-22T14:59:33.124Z,21.47
2023-01-22T15:02:00.968Z,16.83
2023-01-22T15:04:28.753Z,20.40
2023-01-22T15:06:56.563Z,21.57
2023-01-22T15:09:24.465Z,19.80
2023-01-22T15:11:53.596Z,15.13
2023-01-22T15:14:21.733Z,18.07
2023-01-22T15:16:49.532Z,21.20
2023-01-22T15:19:18.709Z,18.70
2023-01-22T15:21:46.625Z,19.37
2023-01-22T15:24:14.729Z,19.23
2023-01-22T15:26:43.406Z,18.07
2023-01-22T15:29:14.521Z,17.27
2023-01-22T15:31:42.960Z,17.27
2023-01-22T15:34:11.152Z,18.00
2023-01-22T15:36:40.501Z,20.37
2023-01-22T15:39:09.289Z,19.00
2023-01-22T15:41:37.894Z,19.77
2023-01-22T15:44:07.293Z,18.17
2023-01-22T15:46:37.933Z,20.60
2023-01-22T15:49:08.128Z,19.33
2023-01-22T15:51:36.964Z,20.97
2023-01-22T15:54:07.045Z,19.43
2023-01-22T15:56:38.436Z,17.80
2023-01-22T15:59:06.793Z,20.43
2023-01-22T16:01:36.112Z,20.37
2023-01-22T16:04:04.944Z,20.37
2023-01-22T16:06:34.421Z,22.30
2023-01-22T16:09:04.782Z,20.03
2023-01-22T16:11:32.902Z,22.80
2023-01-22T16:14:01.186Z,22.63
2023-01-22T16:16:31.806Z,27.93
2023-01-22T16:19:02.584Z,26.50
2023-01-22T16:21:30.502Z,22.33
2023-01-22T16:24:00.669Z,24.10
2023-01-22T16:26:30.528Z,23.13
2023-01-22T16:29:00.757Z,23.93
2023-01-22T16:31:31.922Z,24.30
2023-01-22T16:34:02.876Z,24.27
2023-01-22T16:36:32.443Z,26.60
2023-01-22T16:39:01.124Z,21.07
2023-01-22T16:41:30.510Z,24.40
2023-01-22T16:44:00.834Z,19.23
2023-01-22T16:46:30.323Z,27.87
2023-01-22T16:49:01.520Z,20.23
2023-01-22T16:51:42.828Z,21.53
2023-01-22T16:54:17.421Z,22.40
2023-01-22T16:56:45.300Z,22.37
2023-01-22T16:59:13.260Z,21.23
2023-01-22T17:01:41.806Z,20.13
2023-01-22T17:04:11.169Z,20.43
2023-01-22T17:06:41.250Z,23.10
2023-01-22T17:09:15.098Z,24.10
2023-01-22T17:11:43.558Z,23.63
2023-01-22T17:14:11.743Z,22.43
2023-01-22T17:16:39.742Z,24.47
2023-01-22T17:19:07.602Z,23.80
2023-01-22T17:21:36.895Z,28.63
2023-01-22T17:24:05.288Z,23.93
2023-01-22T17:26:33.169Z,22.73
2023-01-22T17:29:01.095Z,19.70
2023-01-22T17:31:31.253Z,22.17
2023-01-22T17:33:59.410Z,22.43
2023-01-22T17:36:28.839Z,24.17
2023-01-22T17:38:58.323Z,24.03
2023-01-22T17:41:27.008Z,24.40
2023-01-22T17:43:57.723Z,23.13
2023-01-22T17:46:27.361Z,24.03
2023-01-22T17:48:56.002Z,23.63
2023-01-22T17:51:26.507Z,25.70
2023-01-22T17:53:56.206Z,23.70
2023-01-22T17:56:27.503Z,22.60
2023-01-22T17:58:57.157Z,27.07
2023-01-22T18:01:28.652Z,27.17
2023-01-22T18:03:57.653Z,24.43
2023-01-22T18:06:25.577Z,25.73
2023-01-22T18:08:53.513Z,24.03
2023-01-22T18:11:24.076Z,26.93
2023-01-22T18:13:55.997Z,21.83
2023-01-22T18:16:25.238Z,24.87
2023-01-22T18:18:54.462Z,27.77
2023-01-22T18:21:23.182Z,29.80
2023-01-22T18:23:51.640Z,25.83
2023-01-22T18:26:22.896Z,24.07
2023-01-22T18:28:51.666Z,23.50
2023-01-22T18:31:22.757Z,26.70
2023-01-22T18:33:50.645Z,22.17
2023-01-22T18:36:20.878Z,23.03
2023-01-22T18:38:49.328Z,28.07
2023-01-22T18:41:19.633Z,26.73
2023-01-22T18:43:48.336Z,25.50
2023-01-22T18:46:17.075Z,25.53
2023-01-22T18:48:46.253Z,23.20
2023-01-22T18:51:14.457Z,26.70
2023-01-22T18:53:42.962Z,25.60
2023-01-22T18:56:12.945Z,27.07
2023-01-22T18:58:43.544Z,23.40
2023-01-22T19:01:14.102Z,24.53
2023-01-22T19:03:43.705Z,26.67
2023-01-22T19:06:16.171Z,23.73
2023-01-22T19:08:46.068Z,27.13
2023-01-22T19:11:14.875Z,25.20
2023-01-22T19:13:45.086Z,28.03
2023-01-22T19:16:15.343Z,25.90
2023-01-22T19:18:46.539Z,28.13
2023-01-22T19:21:18.019Z,32.20
2023-01-22T19:23:46.922Z,23.27
2023-01-22T19:26:17.772Z,25.27
2023-01-22T19:28:45.796Z,23.53
2023-01-22T19:31:16.613Z,29.50
2023-01-22T19:33:44.432Z,26.13
2023-01-22T19:36:12.253Z,26.30
2023-01-22T19:38:41.616Z,23.13
2023-01-22T19:41:10.102Z,24.07
2023-01-22T19:43:38.019Z,24.53
2023-01-22T19:46:08.038Z,23.37
2023-01-22T19:48:37.143Z,27.17
2023-01-22T19:51:07.196Z,22.90
2023-01-22T19:53:36.597Z,27.73
2023-01-22T19:56:07.000Z,24.80
2023-01-22T19:58:34.858Z,25.23
2023-01-22T20:01:09.293Z,25.17
2023-01-22T20:03:37.133Z,22.07
2023-01-22T20:06:06.742Z,24.10
2023-01-22T20:08:36.253Z,25.03
2023-01-22T20:11:07.674Z,21.73
2023-01-22T20:13:36.754Z,24.10
2023-01-22T20:16:05.410Z,23.87
2023-01-22T20:18:33.849Z,24.57
2023-01-22T20:21:03.957Z,24.87
2023-01-22T20:23:31.807Z,23.07
2023-01-22T20:26:02.062Z,22.67
2023-01-22T20:28:31.465Z,24.00
2023-01-22T20:31:01.295Z,23.93
2023-01-22T20:33:29.578Z,22.93
2023-01-22T20:35:58.012Z,22.77
2023-01-22T20:38:26.362Z,21.63
2023-01-22T20:40:54.165Z,22.33
2023-01-22T20:43:21.968Z,23.47
2023-01-22T20:46:01.279Z,21.73
2023-01-22T20:48:30.025Z,22.27
2023-01-22T20:50:58.268Z,22.87
2023-01-22T20:53:26.876Z,22.30
2023-01-22T20:56:02.959Z,21.67
2023-01-22T20:58:30.986Z,28.23
2023-01-22T21:01:06.108Z,26.73
2023-01-22T21:03:34.457Z,24.57
2023-01-22T21:06:04.111Z,24.73
2023-01-22T21:08:32.085Z,24.00
2023-01-22T21:11:01.519Z,22.17
2023-01-22T21:13:29.833Z,24.07
2023-01-22T21:15:58.094Z,20.87
2023-01-22T21:18:27.542Z,22.33
2023-01-22T21:20:55.340Z,22.50
2023-01-22T21:23:23.112Z,21.30
2023-01-22T21:25:51.563Z,20.33
2023-01-22T21:28:19.549Z,21.40
2023-01-22T21:30:47.619Z,21.20
2023-01-22T21:33:16.948Z,23.33
2023-01-22T21:35:50.650Z,22.23
2023-01-22T21:38:18.446Z,20.63
2023-01-22T21:40:46.467Z,20.37
2023-01-22T21:43:33.559Z,23.17
2023-01-22T21:46:18.763Z,24.03
2023-01-22T21:48:46.592Z,20.93
2023-01-22T21:51:16.247Z,21.93
2023-01-22T21:53:44.929Z,23.83
2023-01-22T21:56:12.952Z,22.70
2023-01-22T21:58:45.091Z,25.67
2023-01-22T22:01:16.221Z,24.17
2023-01-22T22:03:44.355Z,21.40
2023-01-22T22:06:13.273Z,23.73
2023-01-22T22:08:44.308Z,22.27
2023-01-22T22:11:13.751Z,22.70
2023-01-22T22:13:41.953Z,20.97
2023-01-22T22:16:11.364Z,18.97
2023-01-22T22:18:39.486Z,22.73
2023-01-22T22:21:09.473Z,22.57
2023-01-22T22:23:38.013Z,18.93
2023-01-22T22:26:08.796Z,22.30
2023-01-22T22:28:36.807Z,19.47
2023-01-22T22:31:06.080Z,23.50
2023-01-22T22:33:33.872Z,25.37
2023-01-22T22:36:02.077Z,24.60
2023-01-22T22:38:30.020Z,22.70
2023-01-22T22:41:02.895Z,23.13
2023-01-22T22:43:36.568Z,21.10
2023-01-22T22:46:06.414Z,24.23
2023-01-22T22:48:35.047Z,24.70
2023-01-22T22:51:10.782Z,24.77
2023-01-22T22:53:38.601Z,24.63
2023-01-22T22:56:08.150Z,23.57
2023-01-22T22:58:37.864Z,22.50
2023-01-22T23:01:09.563Z,23.53
2023-01-22T23:03:38.465Z,23.53
2023-01-22T23:06:10.402Z,21.97
2023-01-22T23:08:38.818Z,22.23
2023-01-22T23:11:08.431Z,22.13
2023-01-22T23:13:38.404Z,26.30
2023-01-22T23:16:08.593Z,25.80
2023-01-22T23:18:36.954Z,22.77
2023-01-22T23:21:06.112Z,24.43
2023-01-22T23:23:34.389Z,22.30
2023-01-22T23:26:02.765Z,24.73
2023-01-22T23:28:30.543Z,24.50
2023-01-22T23:31:05.587Z,23.20
2023-01-22T23:33:33.598Z,22.90
2023-01-22T23:36:02.109Z,23.90
2023-01-22T23:38:29.952Z,23.03
2023-01-22T23:40:58.168Z,21.93
2023-01-22T23:43:25.990Z,22.17
2023-01-22T23:45:53.752Z,22.67
2023-01-22T23:48:23.331Z,22.33
2023-01-22T23:50:53.790Z,22.30
2023-01-22T23:53:22.777Z,23.00
2023-01-22T23:55:50.626Z,22.57
2023-01-22T23:58:18.406Z,20.80
